Time;durP1;ratioP1;P1;durP2;ratioP2;P2;SDS_P1;SDS_P2;PMS_P1;PMS_P2;Temp;Humidity;BMP_temperature;BMP_pressure;BME280_temperature;BME280_humidity;BME280_pressure;Samples;Min_cycle;Max_cycle;Signal;HPM_P1;HPM_P2
2022/07/29 00:01:52;;;;;;;0.75;0.40;;;;;;;-145.06;100.00;60892.56;5947300;23;20487;-89
2022/07/29 00:04:34;;;;;;;0.50;0.20;;;;;;;-145.06;100.00;60892.56;5957502;23;20008;-92
2022/07/29 00:07:13;;;;;;;0.68;0.30;;;;;;;-145.06;100.00;60892.56;5979585;23;20008;-89
2022/07/29 00:09:52;;;;;;;0.93;0.35;;;;;;;-145.06;100.00;60892.56;5961334;23;20013;-89
2022/07/29 00:12:32;;;;;;;0.50;0.30;;;;;;;-145.06;100.00;60892.56;5968595;23;20005;-91
2022/07/29 00:15:11;;;;;;;0.20;0.20;;;;;;;-145.06;100.00;60892.56;5969729;23;20004;-89
2022/07/29 00:17:50;;;;;;;0.40;0.30;;;;;;;-145.06;100.00;60892.56;5972245;23;20005;-90
2022/07/29 00:20:29;;;;;;;0.95;0.30;;;;;;;-145.06;100.00;60892.56;5991392;23;20001;-91
2022/07/29 00:23:08;;;;;;;1.00;0.50;;;;;;;-145.06;100.00;60892.56;5984258;23;20009;-90
2022/07/29 00:25:47;;;;;;;1.10;0.60;;;;;;;-145.06;100.00;60892.56;5969851;23;20009;-90
2022/07/29 00:28:26;;;;;;;0.40;0.30;;;;;;;-145.06;100.00;60892.56;5971591;23;20012;-90
2022/07/29 00:31:05;;;;;;;0.68;0.22;;;;;;;-145.06;100.00;60892.56;5970843;23;20329;-89
2022/07/29 00:33:44;;;;;;;0.50;0.30;;;;;;;-145.06;100.00;60892.56;5972452;23;20009;-91
2022/07/29 00:36:23;;;;;;;0.60;0.40;;;;;;;-145.06;100.00;60892.56;5949713;23;20521;-90
2022/07/29 00:39:02;;;;;;;0.30;0.30;;;;;;;-145.06;100.00;60892.56;5972478;23;20001;-89
2022/07/29 00:41:41;;;;;;;0.70;0.33;;;;;;;-145.06;100.00;60892.56;5950794;23;20321;-89
2022/07/29 00:44:20;;;;;;;0.37;0.20;;;;;;;-145.06;100.00;60892.56;5949689;23;20237;-90
2022/07/29 00:46:59;;;;;;;0.22;0.20;;;;;;;-145.06;100.00;60892.56;5950923;23;20009;-89
2022/07/29 00:49:40;;;;;;;0.90;0.30;;;;;;;-145.06;100.00;60892.56;5982108;23;20428;-91
2022/07/29 00:52:21;;;;;;;0.73;0.30;;;;;;;-145.06;100.00;60892.56;5950011;23;20005;-89
2022/07/29 00:55:02;;;;;;;0.55;0.20;;;;;;;-145.06;100.00;60892.56;5950038;23;20001;-89
2022/07/29 00:57:43;;;;;;;2.33;0.20;;;;;;;-145.06;100.00;60892.56;5950070;23;20005;-89
2022/07/29 01:00:24;;;;;;;0.73;0.30;;;;;;;-145.06;100.00;60892.56;5981894;23;20005;-91
2022/07/29 01:03:03;;;;;;;0.82;0.28;;;;;;;-145.06;100.00;60892.56;5949791;23;20180;-89
2022/07/29 01:05:45;;;;;;;0.23;0.20;;;;;;;-145.06;100.00;60892.56;5970755;23;20009;-90
2022/07/29 01:08:24;;;;;;;0.22;0.22;;;;;;;-145.06;100.00;60892.56;5949601;23;20244;-89
2022/07/29 01:11:03;;;;;;;0.95;0.30;;;;;;;-145.06;100.00;60892.56;5949604;23;20004;-89
2022/07/29 01:13:44;;;;;;;1.00;0.30;;;;;;;-145.06;100.00;60892.56;5949019;23;20004;-90
2022/07/29 01:16:36;;;;;;;3.10;0.40;;;;;;;-145.06;100.00;60892.56;5950560;23;20012;-91
2022/07/29 01:19:41;;;;;;;1.13;0.40;;;;;;;-145.06;100.00;60892.56;5970909;23;20391;-89
2022/07/29 01:22:57;;;;;;;0.63;0.30;;;;;;;-145.06;100.00;60892.56;5949242;23;20278;-90
2022/07/29 01:25:36;;;;;;;0.45;0.30;;;;;;;-145.06;100.00;60892.56;5970448;23;20483;-90
2022/07/29 01:28:53;;;;;;;0.40;0.20;;;;;;;-145.06;100.00;60892.56;5949273;23;20009;-90
2022/07/29 01:31:56;;;;;;;0.50;0.22;;;;;;;-145.06;100.00;60892.56;5971144;23;20005;-89
2022/07/29 01:34:42;;;;;;;0.40;0.30;;;;;;;-145.06;100.00;60892.56;5970259;23;20578;-90
2022/07/29 01:37:37;;;;;;;0.60;0.30;;;;;;;-145.06;100.00;60892.56;5969712;23;20008;-89
2022/07/29 01:41:09;;;;;;;2.20;0.22;;;;;;;-145.06;100.00;60892.56;5970260;23;20593;-89
2022/07/29 01:43:54;;;;;;;0.70;0.30;;;;;;;-145.06;100.00;60892.56;5970210;23;20009;-90
2022/07/29 01:46:38;;;;;;;1.20;0.40;;;;;;;-145.06;100.00;60892.56;5970928;23;20013;-91
2022/07/29 01:49:24;;;;;;;0.63;0.32;;;;;;;-145.06;100.00;60892.56;5949241;23;20009;-89
2022/07/29 01:52:08;;;;;;;0.50;0.30;;;;;;;-145.06;100.00;60892.56;5950070;23;20372;-89
2022/07/29 01:54:57;;;;;;;1.02;0.30;;;;;;;-145.06;100.00;60892.56;5948951;23;20009;-91
2022/07/29 01:57:38;;;;;;;0.50;0.30;;;;;;;-145.06;100.00;60892.56;5949410;23;20388;-90
2022/07/29 02:00:18;;;;;;;1.00;0.30;;;;;;;-145.06;100.00;60892.56;5949354;23;20009;-89
2022/07/29 02:03:02;;;;;;;0.40;0.30;;;;;;;-145.06;100.00;60892.56;5948689;23;20009;-88
2022/07/29 02:05:43;;;;;;;1.42;0.43;;;;;;;-145.06;100.00;60892.56;5949489;23;20005;-90
2022/07/29 02:08:25;;;;;;;1.17;0.40;;;;;;;-145.06;100.00;60892.56;5948991;23;20088;-90
2022/07/29 02:11:06;;;;;;;1.25;0.40;;;;;;;-145.06;100.00;60892.56;5949230;23;20005;-89
2022/07/29 02:13:48;;;;;;;2.05;0.40;;;;;;;-145.06;100.00;60892.56;5969972;23;20001;-90
2022/07/29 02:16:30;;;;;;;1.58;0.40;;;;;;;-145.06;100.00;60892.56;5949096;23;20013;-89
2022/07/29 02:19:10;;;;;;;0.38;0.28;;;;;;;-145.06;100.00;60892.56;5942119;23;20002;-88
2022/07/29 02:21:53;;;;;;;0.95;0.30;;;;;;;-145.06;100.00;60892.56;5949966;23;20009;-90
2022/07/29 02:24:35;;;;;;;0.75;0.30;;;;;;;-145.06;100.00;60892.56;5949299;23;20004;-90
2022/07/29 02:27:17;;;;;;;1.15;0.30;;;;;;;-145.06;100.00;60892.56;5949512;23;20009;-90
2022/07/29 02:29:58;;;;;;;1.13;0.35;;;;;;;-145.06;100.00;60892.56;5969717;23;20455;-89
2022/07/29 02:32:39;;;;;;;0.95;0.50;;;;;;;-145.06;100.00;60892.56;5949535;23;20040;-91
2022/07/29 02:35:19;;;;;;;0.30;0.20;;;;;;;-145.06;100.00;60892.56;5949406;23;20001;-89
2022/07/29 02:40:58;;;;;;;0.50;0.30;;;;;;;-145.06;100.00;60892.56;5980974;23;20458;-91
2022/07/29 02:43:40;;;;;;;0.75;0.40;;;;;;;-145.06;100.00;60892.56;5948786;23;20009;-90
2022/07/29 02:46:27;;;;;;;0.60;0.30;;;;;;;-145.06;100.00;60892.56;5949060;23;20009;-90
2022/07/29 02:49:13;;;;;;;0.45;0.20;;;;;;;-145.06;100.00;60892.56;5948678;23;20001;-90
2022/07/29 02:52:00;;;;;;;3.85;0.50;;;;;;;-145.06;100.00;60892.56;5980917;23;20447;-89
2022/07/29 02:54:45;;;;;;;0.82;0.35;;;;;;;-145.06;100.00;60892.56;5949056;23;20005;-89
2022/07/29 02:57:27;;;;;;;0.63;0.30;;;;;;;-145.06;100.00;60892.56;5948418;23;20080;-91
2022/07/29 03:00:09;;;;;;;0.98;0.50;;;;;;;-145.06;100.00;60892.56;5948868;23;20032;-90
2022/07/29 03:02:53;;;;;;;0.43;0.35;;;;;;;-145.06;100.00;60892.56;5948865;23;20009;-90
2022/07/29 03:05:32;;;;;;;0.80;0.38;;;;;;;-145.06;100.00;60892.56;5948662;23;20076;-89
2022/07/29 03:08:14;;;;;;;0.55;0.30;;;;;;;-145.06;100.00;60892.56;5948721;23;20005;-88
2022/07/29 03:10:55;;;;;;;0.35;0.20;;;;;;;-145.06;100.00;60892.56;5948604;23;20008;-89
2022/07/29 03:13:35;;;;;;;1.23;0.40;;;;;;;-145.06;100.00;60892.56;5948533;23;20142;-90
2022/07/29 03:16:15;;;;;;;0.60;0.55;;;;;;;-145.06;100.00;60892.56;5948622;23;20008;-89
2022/07/29 03:18:55;;;;;;;0.70;0.30;;;;;;;-145.06;100.00;60892.56;5948401;23;20412;-89
2022/07/29 03:21:34;;;;;;;0.43;0.32;;;;;;;-145.06;100.00;60892.56;5948887;23;20009;-90
2022/07/29 03:24:26;;;;;;;0.80;0.40;;;;;;;-145.06;100.00;60892.56;5949821;23;20428;-91
2022/07/29 03:27:05;;;;;;;0.73;0.30;;;;;;;-145.06;100.00;60892.56;5970603;23;20079;-89
2022/07/29 03:29:44;;;;;;;0.90;0.40;;;;;;;-145.06;100.00;60892.56;5967892;23;19997;-91
2022/07/29 03:32:23;;;;;;;0.60;0.38;;;;;;;-145.06;100.00;60892.56;5973350;23;20013;-90
2022/07/29 03:35:03;;;;;;;0.60;0.40;;;;;;;-145.06;100.00;60892.56;5969296;23;20013;-89
2022/07/29 03:37:43;;;;;;;0.70;0.40;;;;;;;-145.06;100.00;60892.56;5948700;23;20033;-91
2022/07/29 03:40:37;;;;;;;1.33;0.28;;;;;;;-145.06;100.00;60892.56;5949077;23;20310;-90
2022/07/29 03:43:59;;;;;;;0.57;0.30;;;;;;;-145.06;100.00;60892.56;5950536;23;20005;-90
2022/07/29 03:46:41;;;;;;;0.50;0.20;;;;;;;-145.06;100.00;60892.56;5892236;23;20029;-89
2022/07/29 03:49:22;;;;;;;0.68;0.35;;;;;;;-145.06;100.00;60892.56;5970424;23;20416;-90
2022/07/29 14:58:44;;;;;;;1.10;0.40;;;;;;;-145.06;100.00;60892.56;5984277;22;20023;-89
2022/07/29 15:01:24;;;;;;;0.60;0.30;;;;;;;-145.06;100.00;60892.56;5974977;23;20012;-87
2022/07/29 15:04:09;;;;;;;0.43;0.30;;;;;;;-145.06;100.00;60892.56;5973242;23;20008;-91
2022/07/29 15:07:35;;;;;;;0.68;0.40;;;;;;;-145.06;100.00;60892.56;5999370;23;20300;-92
2022/07/29 15:10:18;;;;;;;0.70;0.30;;;;;;;-145.06;100.00;60892.56;5980779;23;20001;-90
2022/07/29 15:22:34;;;;;;;0.30;0.30;;;;;;;-145.06;100.00;60892.56;6008465;23;20071;-91
2022/07/29 15:25:15;;;;;;;0.38;0.30;;;;;;;-145.06;100.00;60892.56;5958725;23;20001;-90
2022/07/29 16:42:00;;;;;;;0.85;0.30;;;;;;;-145.06;100.00;60892.56;5953849;22;20342;-87
2022/07/29 16:49:03;;;;;;;0.40;0.40;;;;;;;-145.06;100.00;60892.56;5871954;23;20007;-92
2022/07/29 17:04:05;;;;;;;2.70;0.40;;;;;;;-145.06;100.00;60892.56;5805593;23;20015;-91
2022/07/29 17:06:58;;;;;;;0.80;0.30;;;;;;;-145.06;100.00;60892.56;5797016;23;20054;-90
2022/07/29 17:10:28;;;;;;;0.50;0.30;;;;;;;-145.06;100.00;60892.56;5817961;23;20004;-91
2022/07/29 17:13:39;;;;;;;0.50;0.30;;;;;;;-145.06;100.00;60892.56;5824745;23;20034;-91
2022/07/29 17:16:42;;;;;;;0.88;0.40;;;;;;;-145.06;100.00;60892.56;5934032;23;20005;-91
2022/07/29 17:19:50;;;;;;;0.60;0.40;;;;;;;-145.06;100.00;60892.56;5946756;23;20000;-89
2022/07/29 17:23:14;;;;;;;0.55;0.47;;;;;;;-145.06;100.00;60892.56;5947166;23;20514;-91
2022/07/29 17:26:37;;;;;;;1.58;0.50;;;;;;;-145.06;100.00;60892.56;5947434;23;20001;-91
2022/07/29 17:29:41;;;;;;;;;;;;;;;;;;;;;
2022/07/29 17:32:37;;;;;;;;;;;;;;;;;;;;;
2022/07/29 17:46:02;;;;;;;0.52;0.40;;;;;;;-145.06;100.00;60892.56;5888705;23;20647;-91
2022/07/29 17:48:56;;;;;;;1.00;0.43;;;;;;;-145.06;100.00;60892.56;5946005;23;20313;-91
2022/07/29 18:11:16;;;;;;;0.73;0.50;;;;;;;-145.06;100.00;60892.56;5969040;23;20017;-92
2022/07/29 18:28:39;;;;;;;0.75;0.45;;;;;;;-145.06;100.00;60892.56;5860299;23;20015;-90
2022/07/29 18:31:18;;;;;;;1.30;0.75;;;;;;;-145.06;100.00;60892.56;5832741;23;20007;-91
2022/07/29 18:34:11;;;;;;;0.60;0.50;;;;;;;-145.06;100.00;60892.56;5831531;23;20007;-92
2022/07/29 18:36:58;;;;;;;0.30;0.30;;;;;;;-145.06;100.00;60892.56;5850649;23;20011;-91
2022/07/29 18:39:38;;;;;;;0.20;0.20;;;;;;;-145.06;100.00;60892.56;5887432;23;20005;-89
2022/07/29 18:42:20;;;;;;;0.45;0.40;;;;;;;-145.06;100.00;60892.56;5943652;23;20040;-91
2022/07/29 18:45:16;;;;;;;0.45;0.35;;;;;;;-145.06;100.00;60892.56;5942223;23;20005;-89
2022/07/29 18:47:57;;;;;;;0.50;0.38;;;;;;;-145.06;100.00;60892.56;5944393;23;20629;-89
2022/07/29 18:50:37;;;;;;;0.68;0.50;;;;;;;-145.06;100.00;60892.56;5944639;23;20297;-89
2022/07/29 18:53:56;;;;;;;0.45;0.40;;;;;;;-145.06;100.00;60892.56;5943157;23;20009;-89
2022/07/29 18:56:36;;;;;;;0.50;0.40;;;;;;;-145.06;100.00;60892.56;5944362;23;20192;-90
2022/07/29 18:59:49;;;;;;;0.30;0.30;;;;;;;-145.06;100.00;60892.56;5944091;23;20005;-91
2022/07/29 19:02:28;;;;;;;1.00;0.30;;;;;;;-145.06;100.00;60892.56;5954835;23;20001;-88
2022/07/29 19:09:36;;;;;;;1.02;0.40;;;;;;;-145.06;100.00;60892.56;5856460;23;20011;-90
2022/07/29 19:56:45;;;;;;;;;;;;;;;;;;;;;
2022/07/29 19:59:30;;;;;;;0.80;0.30;;;;;;;-145.06;100.00;60892.56;6011660;23;20647;-95
